Time;durP1;ratioP1;P1;durP2;ratioP2;P2;SDS_P1;SDS_P2;PMS_P1;PMS_P2;Temp;Humidity;BMP_temperature;BMP_pressure;BME280_temperature;BME280_humidity;BME280_pressure;Samples;Min_cycle;Max_cycle;Signal;HPM_P1;HPM_P2
2022/03/14 00:01:28;;;;;;;77.45;14.90;;;;;;;;;;5092854;28;20243;-67
2022/03/14 00:03:58;;;;;;;109.45;28.23;;;;;;;;;;5092485;28;20220;-67
2022/03/14 00:06:25;;;;;;;107.78;29.13;;;;;;;;;;5092652;28;20224;-68
2022/03/14 00:08:57;;;;;;;106.95;27.73;;;;;;;;;;5092237;28;20605;-71
2022/03/14 00:11:26;;;;;;;87.72;19.23;;;;;;;;;;5092748;28;20200;-70
2022/03/14 00:13:56;;;;;;;74.47;13.13;;;;;;;;;;5092634;28;20283;-69
2022/03/14 00:16:25;;;;;;;83.28;17.77;;;;;;;;;;5092637;28;20293;-69
2022/03/14 00:18:53;;;;;;;85.13;17.65;;;;;;;;;;5090911;28;20207;-69
2022/03/14 00:21:23;;;;;;;80.60;15.25;;;;;;;;;;5102842;28;20745;-69
2022/03/14 00:23:50;;;;;;;77.32;16.00;;;;;;;;;;5112768;28;20314;-67
2022/03/14 00:26:18;;;;;;;72.90;13.32;;;;;;;;;;5112789;28;20227;-68
2022/03/14 00:28:45;;;;;;;75.18;11.80;;;;;;;;;;5112209;28;20203;-68
2022/03/14 00:31:12;;;;;;;75.72;14.05;;;;;;;;;;5112484;28;20211;-68
2022/03/14 00:33:41;;;;;;;81.20;15.00;;;;;;;;;;5112346;28;20204;-68
2022/03/14 00:36:09;;;;;;;77.80;14.10;;;;;;;;;;5112679;28;20256;-67
2022/03/14 00:38:37;;;;;;;73.30;12.48;;;;;;;;;;5112096;27;20585;-67
2022/03/14 00:41:04;;;;;;;76.13;12.50;;;;;;;;;;5112518;28;20200;-67
2022/03/14 00:43:31;;;;;;;76.75;13.20;;;;;;;;;;5112238;28;20321;-68
2022/03/14 00:45:58;;;;;;;77.00;12.73;;;;;;;;;;5112184;28;20219;-67
2022/03/14 00:48:25;;;;;;;72.15;13.60;;;;;;;;;;5111614;28;20298;-68
2022/03/14 00:50:54;;;;;;;74.15;12.10;;;;;;;;;;5111378;28;20763;-67
2022/03/14 00:53:22;;;;;;;72.18;13.90;;;;;;;;;;5109523;28;20208;-69
2022/03/14 00:55:49;;;;;;;75.20;13.13;;;;;;;;;;5112424;28;20239;-68
2022/03/14 00:58:16;;;;;;;74.50;14.30;;;;;;;;;;5111729;28;20310;-68
2022/03/14 01:00:43;;;;;;;74.40;13.05;;;;;;;;;;5112171;28;20270;-68
2022/03/14 01:03:10;;;;;;;78.13;16.48;;;;;;;;;;5112492;28;20228;-68
2022/03/14 01:05:37;;;;;;;79.35;16.13;;;;;;;;;;5112351;28;20249;-68
2022/03/14 01:08:08;;;;;;;78.50;16.70;;;;;;;;;;5111639;28;20203;-70
2022/03/14 01:10:35;;;;;;;83.65;15.90;;;;;;;;;;5111972;28;20183;-68
2022/03/14 01:13:03;;;;;;;79.28;14.38;;;;;;;;;;5111954;28;20199;-68
2022/03/14 01:15:31;;;;;;;72.75;14.02;;;;;;;;;;5112033;28;20290;-71
2022/03/14 01:17:59;;;;;;;78.40;15.85;;;;;;;;;;5115059;28;20729;-68
2022/03/14 01:20:26;;;;;;;79.90;15.10;;;;;;;;;;5116246;28;20683;-72
2022/03/14 01:22:54;;;;;;;75.82;15.63;;;;;;;;;;5115254;28;20594;-67
2022/03/14 01:25:23;;;;;;;76.85;15.60;;;;;;;;;;5113738;28;20207;-68
2022/03/14 01:27:51;;;;;;;77.65;16.65;;;;;;;;;;5115149;28;20209;-69
2022/03/14 01:30:19;;;;;;;79.60;17.65;;;;;;;;;;5116123;28;20216;-67
2022/03/14 01:32:46;;;;;;;76.35;16.45;;;;;;;;;;5116151;28;20290;-67
2022/03/14 01:35:13;;;;;;;80.78;17.95;;;;;;;;;;5115841;28;20204;-68
2022/03/14 01:37:40;;;;;;;74.70;15.90;;;;;;;;;;5115330;28;20204;-68
2022/03/14 01:40:09;;;;;;;75.05;14.23;;;;;;;;;;5115789;28;20204;-69
2022/03/14 01:42:38;;;;;;;77.40;16.27;;;;;;;;;;5115599;28;20280;-68
2022/03/14 01:45:05;;;;;;;76.10;14.93;;;;;;;;;;5115827;28;20264;-70
2022/03/14 01:47:34;;;;;;;76.97;16.08;;;;;;;;;;5115193;28;20293;-68
2022/03/14 01:50:01;;;;;;;79.65;16.23;;;;;;;;;;5115788;28;20284;-70
2022/03/14 01:52:29;;;;;;;77.85;15.75;;;;;;;;;;5115616;28;20208;-72
2022/03/14 01:54:56;;;;;;;79.20;16.30;;;;;;;;;;5115286;28;20599;-68
2022/03/14 01:57:23;;;;;;;79.43;16.75;;;;;;;;;;5101884;28;20673;-70
2022/03/14 01:59:52;;;;;;;77.07;15.15;;;;;;;;;;5095408;28;20200;-68
2022/03/14 02:02:19;;;;;;;82.00;15.02;;;;;;;;;;5094967;28;20213;-68
2022/03/14 02:04:47;;;;;;;80.25;16.63;;;;;;;;;;5095022;28;20200;-67
2022/03/14 02:07:14;;;;;;;78.63;15.50;;;;;;;;;;5094106;28;20232;-68
2022/03/14 02:09:41;;;;;;;75.43;15.15;;;;;;;;;;5094903;28;20804;-70
2022/03/14 02:12:09;;;;;;;83.20;17.13;;;;;;;;;;5094799;28;20295;-68
2022/03/14 02:14:39;;;;;;;77.22;15.88;;;;;;;;;;5095289;28;20568;-67
2022/03/14 02:17:08;;;;;;;74.95;15.38;;;;;;;;;;5094583;28;20624;-67
2022/03/14 02:19:35;;;;;;;82.85;16.10;;;;;;;;;;5094609;28;20294;-68
2022/03/14 02:22:04;;;;;;;78.32;14.27;;;;;;;;;;5094524;28;20212;-70
2022/03/14 02:24:32;;;;;;;74.57;15.07;;;;;;;;;;5094814;28;20235;-70
2022/03/14 02:26:59;;;;;;;80.38;16.33;;;;;;;;;;5094401;28;20761;-70
2022/03/14 02:29:26;;;;;;;80.82;16.27;;;;;;;;;;5098509;28;20306;-70
2022/03/14 02:31:53;;;;;;;77.07;15.05;;;;;;;;;;5114852;28;20232;-71
2022/03/14 02:34:21;;;;;;;74.57;14.02;;;;;;;;;;5115068;28;20574;-69
2022/03/14 02:36:48;;;;;;;74.43;14.40;;;;;;;;;;5114754;28;20277;-71
2022/03/14 02:39:17;;;;;;;76.13;16.17;;;;;;;;;;5114205;28;20286;-68
2022/03/14 02:41:45;;;;;;;78.95;15.80;;;;;;;;;;5114728;28;20298;-69
2022/03/14 02:44:13;;;;;;;76.93;16.48;;;;;;;;;;5114445;28;20227;-70
2022/03/14 02:46:40;;;;;;;75.68;14.95;;;;;;;;;;5114378;28;20249;-69
2022/03/14 02:49:08;;;;;;;77.78;15.35;;;;;;;;;;5109865;28;20589;-69
2022/03/14 02:51:38;;;;;;;75.95;15.38;;;;;;;;;;5114415;28;20294;-69
2022/03/14 02:54:05;;;;;;;78.57;16.33;;;;;;;;;;5114285;28;20240;-69
2022/03/14 02:56:34;;;;;;;74.30;13.00;;;;;;;;;;5114424;28;20258;-70
2022/03/14 02:59:01;;;;;;;76.63;15.23;;;;;;;;;;5112917;28;20699;-69
2022/03/14 03:01:29;;;;;;;80.07;13.68;;;;;;;;;;5111211;28;20293;-72
2022/03/14 03:03:56;;;;;;;67.15;9.18;;;;;;;;;;5114264;28;20224;-70
2022/03/14 03:06:23;;;;;;;63.67;7.40;;;;;;;;;;5114110;28;20227;-70
2022/03/14 03:08:50;;;;;;;63.78;6.30;;;;;;;;;;5113269;28;20203;-70
2022/03/14 03:11:18;;;;;;;62.33;5.57;;;;;;;;;;5114206;28;20229;-70
2022/03/14 03:13:47;;;;;;;61.72;5.25;;;;;;;;;;5114146;28;20208;-70
2022/03/14 03:16:16;;;;;;;60.70;5.07;;;;;;;;;;5113937;28;20595;-71
2022/03/14 03:18:44;;;;;;;61.58;4.85;;;;;;;;;;5113240;28;20202;-71
2022/03/14 03:21:11;;;;;;;61.50;4.70;;;;;;;;;;5113754;28;20206;-72
2022/03/14 03:23:38;;;;;;;62.20;4.80;;;;;;;;;;5113951;28;20577;-71
2022/03/14 03:26:06;;;;;;;61.22;4.63;;;;;;;;;;5113843;28;20228;-71
2022/03/14 03:28:35;;;;;;;62.40;4.80;;;;;;;;;;5113258;28;20213;-71
2022/03/14 03:31:05;;;;;;;61.60;4.90;;;;;;;;;;5112559;28;20851;-70
2022/03/14 03:33:32;;;;;;;67.27;5.20;;;;;;;;;;5110296;28;20459;-70
2022/03/14 03:35:59;;;;;;;61.00;4.73;;;;;;;;;;5113365;28;20852;-70
2022/03/14 03:38:27;;;;;;;71.57;10.10;;;;;;;;;;5113018;28;20484;-71
2022/03/14 03:40:54;;;;;;;75.47;11.50;;;;;;;;;;5113318;28;20535;-71
2022/03/14 03:43:21;;;;;;;71.10;9.63;;;;;;;;;;5113288;28;20573;-71
2022/03/14 03:45:48;;;;;;;67.00;8.50;;;;;;;;;;5113256;28;20952;-71
2022/03/14 03:48:17;;;;;;;63.63;6.13;;;;;;;;;;5112553;28;20478;-71
2022/03/14 03:50:45;;;;;;;66.00;6.10;;;;;;;;;;5113151;28;20241;-71
2022/03/14 03:53:12;;;;;;;60.67;4.83;;;;;;;;;;5113394;28;20909;-72
2022/03/14 03:55:39;;;;;;;65.37;7.40;;;;;;;;;;5113212;28;20480;-71
2022/03/14 03:58:06;;;;;;;64.90;7.00;;;;;;;;;;5112551;27;20534;-72
2022/03/14 04:00:33;;;;;;;64.75;6.95;;;;;;;;;;5113107;28;20950;-71
2022/03/14 04:03:01;;;;;;;62.50;6.60;;;;;;;;;;5113003;28;20227;-71
2022/03/14 04:05:30;;;;;;;60.90;5.27;;;;;;;;;;5111954;27;20471;-71
2022/03/14 04:07:59;;;;;;;61.37;5.00;;;;;;;;;;5110351;28;20451;-70
2022/03/14 04:10:27;;;;;;;66.20;9.10;;;;;;;;;;5113266;28;20573;-70
2022/03/14 04:12:55;;;;;;;70.00;9.40;;;;;;;;;;5112978;28;20545;-70
2022/03/14 04:15:23;;;;;;;67.53;9.17;;;;;;;;;;5112644;28;20622;-70
2022/03/14 04:17:50;;;;;;;67.70;9.93;;;;;;;;;;5112267;28;20455;-70
2022/03/14 04:20:21;;;;;;;68.57;10.37;;;;;;;;;;5112847;28;20295;-71
2022/03/14 04:22:49;;;;;;;74.07;12.33;;;;;;;;;;5112844;28;20504;-72
2022/03/14 04:25:17;;;;;;;73.10;10.97;;;;;;;;;;5112622;28;20486;-69
2022/03/14 04:27:44;;;;;;;74.22;12.43;;;;;;;;;;5111913;28;20834;-72
2022/03/14 04:30:12;;;;;;;72.85;13.18;;;;;;;;;;5112323;28;20222;-72
2022/03/14 04:32:39;;;;;;;77.00;13.57;;;;;;;;;;5112684;28;20288;-72
2022/03/14 04:35:07;;;;;;;72.20;12.20;;;;;;;;;;5112653;28;20822;-71
2022/03/14 04:37:35;;;;;;;72.67;13.13;;;;;;;;;;5110767;28;20984;-72
2022/03/14 04:40:03;;;;;;;74.93;13.27;;;;;;;;;;5109585;28;20527;-71
2022/03/14 04:42:32;;;;;;;76.73;14.13;;;;;;;;;;5112198;28;20244;-70
2022/03/14 04:44:59;;;;;;;76.03;13.60;;;;;;;;;;5112466;28;20489;-70
2022/03/14 04:47:27;;;;;;;75.55;13.93;;;;;;;;;;5111821;28;20307;-71
2022/03/14 04:49:54;;;;;;;75.40;14.13;;;;;;;;;;5112213;28;20209;-71
2022/03/14 04:52:21;;;;;;;75.88;14.45;;;;;;;;;;5111732;28;20214;-71
2022/03/14 04:54:48;;;;;;;74.15;12.60;;;;;;;;;;5112391;28;20205;-70
2022/03/14 04:57:17;;;;;;;72.25;12.25;;;;;;;;;;5111255;28;20237;-73
2022/03/14 04:59:44;;;;;;;73.97;11.57;;;;;;;;;;5112446;28;20288;-71
2022/03/14 05:02:11;;;;;;;67.75;10.75;;;;;;;;;;5112305;28;20975;-71
2022/03/14 05:04:38;;;;;;;71.80;11.27;;;;;;;;;;5112003;28;20236;-71
2022/03/14 05:07:07;;;;;;;70.70;12.07;;;;;;;;;;5111935;28;20561;-71
2022/03/14 05:09:35;;;;;;;74.30;12.03;;;;;;;;;;5105440;28;20445;-73
2022/03/14 05:12:02;;;;;;;71.53;11.57;;;;;;;;;;5091748;28;20452;-69
2022/03/14 05:14:31;;;;;;;70.97;9.90;;;;;;;;;;5091484;28;20698;-69
2022/03/14 05:16:58;;;;;;;69.80;10.40;;;;;;;;;;5091631;28;20467;-69
2022/03/14 05:19:25;;;;;;;69.82;11.30;;;;;;;;;;5091013;28;20205;-70
2022/03/14 05:21:53;;;;;;;74.55;13.63;;;;;;;;;;5091551;28;20219;-72
2022/03/14 05:24:20;;;;;;;74.17;14.27;;;;;;;;;;5091264;28;20317;-69
2022/03/14 05:26:47;;;;;;;71.27;12.70;;;;;;;;;;5091605;28;20559;-70
2022/03/14 05:29:15;;;;;;;74.13;14.50;;;;;;;;;;5090550;28;20448;-72
2022/03/14 05:31:44;;;;;;;72.40;13.50;;;;;;;;;;5091541;28;20952;-70
2022/03/14 05:34:11;;;;;;;69.70;12.93;;;;;;;;;;5091543;28;20961;-70
2022/03/14 05:36:40;;;;;;;73.75;12.55;;;;;;;;;;5091326;28;20474;-69
2022/03/14 05:39:07;;;;;;;68.90;11.20;;;;;;;;;;5090902;28;20291;-69
2022/03/14 05:41:34;;;;;;;69.47;11.97;;;;;;;;;;5096870;28;20451;-69
2022/03/14 05:44:02;;;;;;;77.57;13.93;;;;;;;;;;5111929;28;20478;-69
2022/03/14 05:46:29;;;;;;;77.00;14.00;;;;;;;;;;5111674;28;20560;-70
2022/03/14 05:48:58;;;;;;;73.53;13.60;;;;;;;;;;5111215;28;20454;-69
2022/03/14 05:51:25;;;;;;;70.83;12.70;;;;;;;;;;5111502;28;21021;-69
2022/03/14 05:53:52;;;;;;;78.80;14.85;;;;;;;;;;5111865;28;20800;-70
2022/03/14 05:56:19;;;;;;;74.47;13.23;;;;;;;;;;5111915;28;20622;-70
2022/03/14 05:58:46;;;;;;;74.70;12.30;;;;;;;;;;5111028;28;20448;-70
2022/03/14 06:01:14;;;;;;;75.27;13.70;;;;;;;;;;5111722;28;20450;-70
2022/03/14 06:03:41;;;;;;;72.82;14.38;;;;;;;;;;5114008;28;20456;-70
2022/03/14 06:06:10;;;;;;;75.65;14.65;;;;;;;;;;5115570;28;20617;-69
2022/03/14 06:08:37;;;;;;;80.10;15.85;;;;;;;;;;5114696;28;20684;-69
2022/03/14 06:11:05;;;;;;;76.07;14.83;;;;;;;;;;5114944;28;20212;-70
2022/03/14 06:13:32;;;;;;;79.45;14.30;;;;;;;;;;5111996;28;20454;-70
2022/03/14 06:16:00;;;;;;;74.13;13.80;;;;;;;;;;5115181;28;20224;-69
2022/03/14 06:18:29;;;;;;;76.27;14.80;;;;;;;;;;5114308;28;20452;-69
2022/03/14 06:20:56;;;;;;;77.37;15.40;;;;;;;;;;5114984;28;20451;-70
2022/03/14 06:23:25;;;;;;;77.20;14.77;;;;;;;;;;5115051;28;20550;-69
2022/03/14 06:25:53;;;;;;;82.77;14.80;;;;;;;;;;5114850;28;20493;-72
2022/03/14 06:28:21;;;;;;;73.57;14.10;;;;;;;;;;5114184;28;20452;-70
2022/03/14 06:30:48;;;;;;;76.53;14.37;;;;;;;;;;5114832;28;20462;-70
2022/03/14 06:33:15;;;;;;;79.37;16.37;;;;;;;;;;5114954;28;20528;-70
2022/03/14 06:35:42;;;;;;;79.20;15.50;;;;;;;;;;5114916;28;20834;-72
2022/03/14 06:38:11;;;;;;;75.43;13.73;;;;;;;;;;5114171;28;20470;-71
2022/03/14 06:40:40;;;;;;;75.47;13.37;;;;;;;;;;5114773;28;20866;-70
2022/03/14 06:43:07;;;;;;;74.93;11.37;;;;;;;;;;5113502;28;20451;-71
2022/03/14 06:45:34;;;;;;;66.67;8.70;;;;;;;;;;5111205;28;20502;-70
2022/03/14 06:48:02;;;;;;;63.25;6.70;;;;;;;;;;5113825;28;20939;-70
2022/03/14 06:50:31;;;;;;;61.57;5.10;;;;;;;;;;5114663;28;20205;-70
2022/03/14 06:52:58;;;;;;;66.38;6.10;;;;;;;;;;5114655;28;20457;-71
2022/03/14 06:55:26;;;;;;;66.47;6.30;;;;;;;;;;5114415;28;20577;-71
2022/03/14 06:57:55;;;;;;;64.00;7.03;;;;;;;;;;5113358;28;20539;-72
2022/03/14 07:00:23;;;;;;;63.35;6.85;;;;;;;;;;5114508;27;20455;-72
2022/03/14 07:02:50;;;;;;;60.20;4.70;;;;;;;;;;5114305;28;20212;-71
2022/03/14 07:05:20;;;;;;;59.90;4.47;;;;;;;;;;5114041;28;20813;-70
2022/03/14 07:07:48;;;;;;;62.57;4.80;;;;;;;;;;5113445;28;20213;-71
2022/03/14 07:10:16;;;;;;;63.20;4.25;;;;;;;;;;5114157;28;20454;-71
2022/03/14 07:12:47;;;;;;;59.67;4.10;;;;;;;;;;5113759;28;20786;-71
2022/03/14 07:15:16;;;;;;;59.20;3.40;;;;;;;;;;5113182;28;20439;-71
2022/03/14 07:17:44;;;;;;;69.90;3.95;;;;;;;;;;5103730;28;20455;-73
2022/03/14 07:20:11;;;;;;;59.65;3.80;;;;;;;;;;5093650;28;20245;-70
2022/03/14 07:22:49;;;;;;;60.35;3.65;;;;;;;;;;5093418;28;20204;-70
2022/03/14 07:25:19;;;;;;;65.35;3.75;;;;;;;;;;5093453;28;20673;-71
2022/03/14 07:27:46;;;;;;;59.88;3.15;;;;;;;;;;5092706;28;20299;-70
2022/03/14 07:30:14;;;;;;;59.17;3.00;;;;;;;;;;5093384;28;20600;-70
2022/03/14 07:32:43;;;;;;;58.60;3.00;;;;;;;;;;5093315;28;20453;-70
2022/03/14 07:35:10;;;;;;;60.83;2.90;;;;;;;;;;5093338;28;20576;-71
2022/03/14 07:37:38;;;;;;;60.70;3.00;;;;;;;;;;5092335;28;20205;-70
2022/03/14 07:40:06;;;;;;;58.60;2.95;;;;;;;;;;5093330;28;20213;-71
2022/03/14 07:42:33;;;;;;;61.13;3.53;;;;;;;;;;5093277;28;20206;-70
2022/03/14 07:45:00;;;;;;;59.43;3.00;;;;;;;;;;5093051;28;20479;-70
2022/03/14 07:47:28;;;;;;;66.97;3.80;;;;;;;;;;5092084;28;20558;-70
2022/03/14 07:49:56;;;;;;;59.27;3.43;;;;;;;;;;5096140;28;20210;-70
2022/03/14 07:52:24;;;;;;;58.97;3.20;;;;;;;;;;5113336;28;20817;-70
2022/03/14 07:54:51;;;;;;;60.77;3.57;;;;;;;;;;5113033;28;20699;-71
2022/03/14 07:57:18;;;;;;;59.37;3.30;;;;;;;;;;5112326;28;20469;-70
2022/03/14 07:59:46;;;;;;;60.85;3.20;;;;;;;;;;5113093;28;20438;-70
2022/03/14 08:02:14;;;;;;;61.63;3.20;;;;;;;;;;5113377;28;20220;-70
2022/03/14 08:04:41;;;;;;;63.55;2.90;;;;;;;;;;5113215;28;20315;-72
2022/03/14 08:07:10;;;;;;;64.40;3.43;;;;;;;;;;5112770;28;20231;-70
2022/03/14 08:09:37;;;;;;;60.47;3.50;;;;;;;;;;5113017;28;20955;-72
2022/03/14 08:12:05;;;;;;;61.63;3.40;;;;;;;;;;5113026;28;20534;-69
2022/03/14 08:14:32;;;;;;;63.23;3.20;;;;;;;;;;5112779;28;20444;-70
2022/03/14 08:16:59;;;;;;;59.73;3.33;;;;;;;;;;5112663;28;20498;-70
2022/03/14 08:19:28;;;;;;;59.40;3.50;;;;;;;;;;5111889;28;20452;-70
2022/03/14 08:21:56;;;;;;;58.97;3.10;;;;;;;;;;5099084;28;20807;-70
2022/03/14 08:24:25;;;;;;;61.83;3.03;;;;;;;;;;5092361;28;20450;-70
2022/03/14 08:26:53;;;;;;;59.50;3.00;;;;;;;;;;5091360;28;20500;-70
2022/03/14 08:29:20;;;;;;;59.47;3.20;;;;;;;;;;5091578;28;20498;-70
2022/03/14 08:31:47;;;;;;;59.27;3.13;;;;;;;;;;5092062;28;20448;-69
2022/03/14 08:34:15;;;;;;;61.83;3.13;;;;;;;;;;5092075;28;20448;-69
2022/03/14 08:36:42;;;;;;;60.43;2.87;;;;;;;;;;5092315;28;20476;-69
2022/03/14 08:39:10;;;;;;;60.77;4.20;;;;;;;;;;5091516;28;20797;-70
2022/03/14 08:41:39;;;;;;;62.43;3.33;;;;;;;;;;5091997;28;20885;-70
2022/03/14 08:44:06;;;;;;;60.33;4.10;;;;;;;;;;5092152;28;20494;-70
2022/03/14 08:46:34;;;;;;;61.30;4.00;;;;;;;;;;5092020;28;20492;-70
2022/03/14 08:49:01;;;;;;;58.60;3.00;;;;;;;;;;5091217;28;20446;-70
2022/03/14 08:51:28;;;;;;;62.87;3.20;;;;;;;;;;5091821;28;20446;-68
2022/03/14 08:53:56;;;;;;;58.60;2.80;;;;;;;;;;5103183;28;20458;-68
2022/03/14 08:56:23;;;;;;;58.30;2.80;;;;;;;;;;5112177;28;20473;-68
2022/03/14 08:58:51;;;;;;;58.80;2.90;;;;;;;;;;5111267;28;20481;-71
2022/03/14 09:01:18;;;;;;;60.90;2.70;;;;;;;;;;5112342;28;20448;-68
2022/03/14 09:03:46;;;;;;;58.47;2.90;;;;;;;;;;5112189;28;20537;-69
2022/03/14 09:06:13;;;;;;;61.73;3.20;;;;;;;;;;5112006;28;20488;-70
2022/03/14 09:08:40;;;;;;;61.07;3.27;;;;;;;;;;5111411;28;20455;-69
2022/03/14 09:11:07;;;;;;;62.87;3.40;;;;;;;;;;5112012;28;20937;-69
2022/03/14 09:13:34;;;;;;;58.47;2.90;;;;;;;;;;5111880;28;20543;-69
2022/03/14 09:16:05;;;;;;;61.07;3.13;;;;;;;;;;5112533;28;20465;-69
2022/03/14 09:18:32;;;;;;;60.03;2.90;;;;;;;;;;5111542;28;20581;-69
2022/03/14 09:20:59;;;;;;;60.30;3.17;;;;;;;;;;5111938;28;20449;-69
2022/03/14 09:23:26;;;;;;;61.23;3.10;;;;;;;;;;5111958;28;20827;-69
2022/03/14 09:25:57;;;;;;;58.80;3.30;;;;;;;;;;5108729;28;20500;-69
2022/03/14 09:28:25;;;;;;;60.10;3.07;;;;;;;;;;5111506;28;20540;-69
2022/03/14 09:30:52;;;;;;;59.97;3.30;;;;;;;;;;5111810;28;20461;-69
2022/03/14 09:33:21;;;;;;;61.60;3.23;;;;;;;;;;5111890;28;20450;-69
2022/03/14 09:35:48;;;;;;;58.57;3.20;;;;;;;;;;5111762;28;20526;-69
2022/03/14 09:38:17;;;;;;;58.97;2.93;;;;;;;;;;5113351;28;20449;-69
2022/03/14 09:40:45;;;;;;;59.10;3.40;;;;;;;;;;5116249;28;20449;-69
2022/03/14 09:43:14;;;;;;;59.27;3.13;;;;;;;;;;5116147;27;20445;-69
2022/03/14 09:45:42;;;;;;;59.20;3.40;;;;;;;;;;5115702;28;20629;-70
2022/03/14 09:48:11;;;;;;;59.93;3.60;;;;;;;;;;5114982;28;20442;-69
2022/03/14 09:50:40;;;;;;;61.53;3.80;;;;;;;;;;5115498;28;20507;-69
2022/03/14 09:53:08;;;;;;;67.70;4.87;;;;;;;;;;5115327;28;20612;-71
2022/03/14 09:55:41;;;;;;;58.87;3.20;;;;;;;;;;5109824;28;20993;-70
2022/03/14 09:58:09;;;;;;;61.40;3.07;;;;;;;;;;5094726;28;20451;-70
2022/03/14 10:00:36;;;;;;;59.57;2.80;;;;;;;;;;5095392;28;20453;-73
2022/03/14 10:03:04;;;;;;;59.27;3.20;;;;;;;;;;5095182;28;20545;-69
2022/03/14 10:05:31;;;;;;;60.50;3.40;;;;;;;;;;5094641;28;20489;-69
2022/03/14 10:08:00;;;;;;;61.50;2.80;;;;;;;;;;5094614;28;20451;-72
2022/03/14 10:10:27;;;;;;;58.30;2.70;;;;;;;;;;5095096;28;20513;-70
2022/03/14 10:12:57;;;;;;;59.50;3.03;;;;;;;;;;5094921;28;20462;-70
2022/03/14 10:15:25;;;;;;;61.40;3.27;;;;;;;;;;5094886;28;20544;-70
2022/03/14 10:17:53;;;;;;;62.10;2.60;;;;;;;;;;5093999;28;20446;-71
2022/03/14 10:20:21;;;;;;;60.23;2.80;;;;;;;;;;5095011;28;20452;-72
2022/03/14 10:22:49;;;;;;;59.57;3.20;;;;;;;;;;5094725;28;20798;-73
2022/03/14 10:25:18;;;;;;;59.03;2.80;;;;;;;;;;5094431;28;20485;-70
2022/03/14 10:27:47;;;;;;;60.23;2.40;;;;;;;;;;5090438;28;20455;-70
2022/03/14 10:30:24;;;;;;;60.77;2.87;;;;;;;;;;5094571;28;20463;-70
2022/03/14 10:32:52;;;;;;;59.70;2.70;;;;;;;;;;5094630;28;20533;-69
2022/03/14 10:35:20;;;;;;;60.07;2.83;;;;;;;;;;5094622;28;20441;-70
2022/03/14 10:37:58;;;;;;;58.40;2.30;;;;;;;;;;5093897;28;20450;-70
2022/03/14 10:40:31;;;;;;;59.37;2.77;;;;;;;;;;5094342;28;20450;-71
2022/03/14 10:42:58;;;;;;;59.93;3.70;;;;;;;;;;5094236;28;20443;-70
2022/03/14 10:45:25;;;;;;;58.50;2.20;;;;;;;;;;5094078;28;20487;-70
2022/03/14 10:47:57;;;;;;;59.20;2.20;;;;;;;;;;5093770;28;20442;-69
2022/03/14 10:50:31;;;;;;;59.50;2.30;;;;;;;;;;5093211;28;20449;-70
2022/03/14 10:53:02;;;;;;;59.43;2.90;;;;;;;;;;5107328;28;20442;-67
2022/03/14 10:55:36;;;;;;;59.37;3.27;;;;;;;;;;5113792;28;20840;-67
2022/03/14 10:58:08;;;;;;;62.30;2.83;;;;;;;;;;5113943;28;20476;-68
2022/03/14 11:00:45;;;;;;;59.63;3.03;;;;;;;;;;5103629;27;20453;-72
2022/03/14 11:03:12;;;;;;;58.30;3.07;;;;;;;;;;5093890;28;20544;-69
2022/03/14 11:05:44;;;;;;;60.87;3.00;;;;;;;;;;5093766;28;20580;-69
2022/03/14 11:08:26;;;;;;;59.80;3.00;;;;;;;;;;5092864;28;20534;-69
2022/03/14 11:10:55;;;;;;;60.83;2.80;;;;;;;;;;5093450;28;20450;-69
2022/03/14 11:13:22;;;;;;;60.47;2.73;;;;;;;;;;5093680;28;20458;-72
2022/03/14 11:15:49;;;;;;;60.00;2.73;;;;;;;;;;5093438;28;20462;-70
2022/03/14 11:18:16;;;;;;;59.47;2.30;;;;;;;;;;5092810;28;20454;-71
2022/03/14 11:20:44;;;;;;;58.60;2.20;;;;;;;;;;5093316;28;21030;-70
2022/03/14 11:23:12;;;;;;;58.40;2.30;;;;;;;;;;5093330;28;20459;-70
2022/03/14 11:25:40;;;;;;;60.67;2.20;;;;;;;;;;5093218;28;20994;-69
2022/03/14 11:28:09;;;;;;;59.57;2.20;;;;;;;;;;5092771;28;20450;-70
2022/03/14 11:30:38;;;;;;;59.30;2.50;;;;;;;;;;5092168;28;20553;-70
2022/03/14 11:33:05;;;;;;;59.87;2.63;;;;;;;;;;5090287;28;20456;-71
2022/03/14 11:35:32;;;;;;;58.27;2.50;;;;;;;;;;5093313;28;20838;-69
2022/03/14 11:38:01;;;;;;;58.27;2.60;;;;;;;;;;5092437;28;20450;-69
2022/03/14 11:40:29;;;;;;;59.43;2.50;;;;;;;;;;5093160;28;20538;-70
2022/03/14 11:42:56;;;;;;;59.00;2.63;;;;;;;;;;5093084;28;20464;-70
2022/03/14 11:45:25;;;;;;;58.83;2.60;;;;;;;;;;5092724;28;20493;-70
2022/03/14 11:47:53;;;;;;;59.70;2.37;;;;;;;;;;5092320;28;20551;-69
2022/03/14 11:50:22;;;;;;;61.37;2.93;;;;;;;;;;5092736;28;20909;-71
2022/03/14 11:52:51;;;;;;;58.50;2.70;;;;;;;;;;5093026;28;20507;-71
2022/03/14 11:55:19;;;;;;;60.27;2.47;;;;;;;;;;5092882;28;20447;-70
2022/03/14 11:57:47;;;;;;;58.63;2.67;;;;;;;;;;5092115;28;20442;-70
2022/03/14 12:00:35;;;;;;;59.07;2.20;;;;;;;;;;5092921;28;20810;-70
2022/03/14 12:03:03;;;;;;;59.77;2.50;;;;;;;;;;5089341;28;20499;-70
2022/03/14 12:05:49;;;;;;;58.10;2.20;;;;;;;;;;5092456;28;20975;-70
2022/03/14 12:08:35;;;;;;;58.67;2.60;;;;;;;;;;5091912;28;20446;-70
2022/03/14 12:11:17;;;;;;;58.70;2.60;;;;;;;;;;5092704;28;20548;-70
2022/03/14 12:13:45;;;;;;;59.07;2.60;;;;;;;;;;5092196;28;20446;-70
2022/03/14 12:16:27;;;;;;;60.53;2.90;;;;;;;;;;5092499;28;20460;-71
2022/03/14 12:18:58;;;;;;;59.57;2.33;;;;;;;;;;5091344;28;20968;-69
2022/03/14 12:21:52;;;;;;;58.30;2.20;;;;;;;;;;5092588;28;20458;-70
2022/03/14 12:24:20;;;;;;;57.60;2.00;;;;;;;;;;5092152;28;20946;-69
2022/03/14 12:26:47;;;;;;;60.00;2.47;;;;;;;;;;5092182;28;20483;-69
2022/03/14 12:29:33;;;;;;;58.30;2.23;;;;;;;;;;5091301;28;20935;-69
2022/03/14 12:32:15;;;;;;;59.40;3.23;;;;;;;;;;5092273;28;20529;-71
2022/03/14 12:34:44;;;;;;;59.20;2.83;;;;;;;;;;5088356;28;20525;-71
2022/03/14 12:37:25;;;;;;;59.13;2.40;;;;;;;;;;5091457;28;20815;-69
2022/03/14 12:39:52;;;;;;;59.23;2.27;;;;;;;;;;5091977;28;20553;-71
2022/03/14 12:42:21;;;;;;;58.27;2.83;;;;;;;;;;5091938;28;20454;-69
2022/03/14 12:45:04;;;;;;;58.57;2.10;;;;;;;;;;5092041;28;20449;-70
2022/03/14 12:47:31;;;;;;;57.70;2.37;;;;;;;;;;5090850;28;20494;-70
2022/03/14 12:49:59;;;;;;;58.00;2.50;;;;;;;;;;5091756;28;20952;-69
2022/03/14 12:52:26;;;;;;;57.97;2.47;;;;;;;;;;5092061;28;20960;-70
2022/03/14 12:54:54;;;;;;;58.13;2.13;;;;;;;;;;5092066;28;20458;-69
2022/03/14 12:57:23;;;;;;;58.33;2.03;;;;;;;;;;5091237;28;21062;-70
2022/03/14 12:59:58;;;;;;;59.17;2.63;;;;;;;;;;5091834;28;20820;-70
2022/03/14 13:02:27;;;;;;;58.67;2.60;;;;;;;;;;5091976;28;20882;-69
2022/03/14 13:04:55;;;;;;;58.67;2.40;;;;;;;;;;5091088;28;20451;-73
2022/03/14 13:07:23;;;;;;;58.27;2.17;;;;;;;;;;5101181;28;20489;-69
2022/03/14 13:09:54;;;;;;;60.83;2.50;;;;;;;;;;5112485;28;20450;-69
2022/03/14 13:12:21;;;;;;;58.57;2.67;;;;;;;;;;5112808;28;20457;-71
2022/03/14 13:14:49;;;;;;;57.90;2.40;;;;;;;;;;5116525;28;20452;-69
2022/03/14 13:17:24;;;;;;;58.70;2.50;;;;;;;;;;5115391;27;20468;-70
2022/03/14 13:19:52;;;;;;;57.80;2.33;;;;;;;;;;5116606;28;20445;-72
2022/03/14 13:22:20;;;;;;;57.60;2.40;;;;;;;;;;5116292;28;20449;-70
2022/03/14 13:24:49;;;;;;;58.00;2.40;;;;;;;;;;5116481;28;20445;-70
2022/03/14 13:27:21;;;;;;;58.00;2.30;;;;;;;;;;5115417;28;20481;-70
2022/03/14 13:29:48;;;;;;;58.37;2.43;;;;;;;;;;5115822;28;20460;-70
2022/03/14 13:32:16;;;;;;;59.60;2.97;;;;;;;;;;5116137;28;20454;-71
2022/03/14 13:34:45;;;;;;;58.37;2.37;;;;;;;;;;5115942;28;20448;-71
2022/03/14 13:37:12;;;;;;;58.07;2.43;;;;;;;;;;5114121;28;20461;-70
2022/03/14 13:39:42;;;;;;;59.67;2.23;;;;;;;;;;5112971;28;20536;-70
2022/03/14 13:42:11;;;;;;;59.37;2.40;;;;;;;;;;5115697;28;20445;-70
2022/03/14 13:44:39;;;;;;;58.87;2.20;;;;;;;;;;5116013;28;20794;-69
2022/03/14 13:47:06;;;;;;;58.23;2.33;;;;;;;;;;5115574;28;20488;-71
2022/03/14 13:49:33;;;;;;;58.83;2.40;;;;;;;;;;5115353;28;20451;-70
2022/03/14 13:52:01;;;;;;;58.73;2.30;;;;;;;;;;5115713;28;20473;-69
2022/03/14 13:54:29;;;;;;;58.57;2.47;;;;;;;;;;5115457;28;20941;-69
2022/03/14 13:57:00;;;;;;;60.23;2.30;;;;;;;;;;5115440;28;20540;-72
2022/03/14 13:59:31;;;;;;;57.93;2.30;;;;;;;;;;5115026;28;20449;-70
2022/03/14 14:01:59;;;;;;;58.10;2.20;;;;;;;;;;5115744;28;20502;-70
2022/03/14 14:04:28;;;;;;;59.20;2.80;;;;;;;;;;5115192;28;20540;-69
2022/03/14 14:06:58;;;;;;;60.10;2.30;;;;;;;;;;5115732;28;20477;-69
2022/03/14 14:09:26;;;;;;;59.67;2.67;;;;;;;;;;5111022;28;20464;-69
2022/03/14 14:11:57;;;;;;;59.80;2.50;;;;;;;;;;5115622;27;20452;-69
2022/03/14 14:14:26;;;;;;;58.27;2.30;;;;;;;;;;5115263;28;20441;-69
2022/03/14 14:16:54;;;;;;;59.43;2.50;;;;;;;;;;5115159;28;20469;-69
2022/03/14 14:19:24;;;;;;;60.07;2.77;;;;;;;;;;5114437;28;20448;-69
2022/03/14 14:21:55;;;;;;;62.53;2.97;;;;;;;;;;5115030;28;20430;-69
2022/03/14 14:24:23;;;;;;;58.20;2.60;;;;;;;;;;5115161;28;20448;-69
2022/03/14 14:26:51;;;;;;;60.03;2.70;;;;;;;;;;5114970;28;20479;-68
2022/03/14 14:29:33;;;;;;;59.00;2.40;;;;;;;;;;5114470;28;20927;-69
2022/03/14 14:32:15;;;;;;;59.50;3.23;;;;;;;;;;5114578;28;20448;-69
2022/03/14 14:34:43;;;;;;;58.30;2.60;;;;;;;;;;5114821;27;20953;-69